Overview Statistics Trail Chart Weather Telemetry Raw packets
 

This is the latest recevied weather packets stored in our database for station/object KC9DRE. If no packets are shown the sender has not sent any weather packets the latest 10 day(s).

<< 35 36 37 38 39 40 41 >>
Time Temp. Humidity Pressure Rain* Wind** Luminosity Snow
1777684031 7.22° C 77% 1016.9 hPa 0 mm - 0 W/m² -
1777683727 7.22° C 75% 1016.7 hPa 0 mm - 0 W/m² -
1777683424 7.78° C 72% 1016.7 hPa 0 mm - 0 W/m² -
1777683122 8.33° C 71% 1016.6 hPa 0 mm - 0 W/m² -
1777682818 8.89° C 68% 1016.6 hPa 0 mm - 1 W/m² -
1777682515 9.44° C 67% 1016.7 hPa 0 mm - 2 W/m² -
1777682213 10° C 63% 1016.6 hPa 0 mm - 3 W/m² -
1777681910 10.56° C 61% 1016.7 hPa 0 mm - 5 W/m² -
1777681605 11.11° C 57% 1016.6 hPa 0 mm - 8 W/m² -
1777681304 11.11° C 56% 1016.5 hPa 0 mm - 11 W/m² -
1777681001 11.67° C 53% 1016.2 hPa 0 mm - 14 W/m² -
1777680698 12.22° C 52% 1016.2 hPa 0 mm - 17 W/m² -
1777680396 12.22° C 50% 1015.8 hPa 0 mm - 21 W/m² -
1777680093 12.78° C 49% 1015.8 hPa 0 mm - 24 W/m² -
1777679789 12.78° C 49% 1015.7 hPa 0 mm - 28 W/m² -
1777679485 13.33° C 48% 1015.4 hPa 0 mm - 33 W/m² -
1777679181 13.33° C 48% 1015.1 hPa 0 mm - 36 W/m² -
1777678878 13.33° C 46% 1015 hPa 0 mm - 43 W/m² -
1777678576 13.33° C 46% 1014.9 hPa 0 mm - 50 W/m² -
1777678274 13.33° C 46% 1015.1 hPa 0 mm - 67 W/m² -
1777677969 14.44° C 43% 1015.3 hPa 0 mm - 43 W/m² -
1777677667 14.44° C 45% 1015.2 hPa 0 mm - 74 W/m² -
1777677364 14.44° C 43% 1015.3 hPa 0 mm - 88 W/m² -
1777677062 14.44° C 46% 1015.5 hPa 0 mm - 99 W/m² -
1777676761 14.44° C 49% 1015.4 hPa 0 mm - 69 W/m² -

* Rain latest hour (hover to see other rain measurements)
** Current wind speed in m/s (hover to see current wind gust speed)